createdAt,value
2019-05-22T00:01:18.055Z,1.57
2019-05-22T00:02:50.400Z,1.97
2019-05-22T00:04:22.896Z,1.87
2019-05-22T00:05:55.300Z,1.90
2019-05-22T00:07:27.635Z,2.13
2019-05-22T00:09:00.138Z,1.80
2019-05-22T00:10:32.961Z,1.63
2019-05-22T00:12:05.287Z,1.60
2019-05-22T00:13:37.692Z,1.60
2019-05-22T00:15:10.183Z,2.17
2019-05-22T00:16:42.577Z,2.77
2019-05-22T00:18:15.007Z,2.53
2019-05-22T00:19:47.364Z,1.90
2019-05-22T00:21:19.773Z,2.33
2019-05-22T00:22:52.187Z,2.80
2019-05-22T00:24:24.655Z,2.37
2019-05-22T00:25:57.092Z,1.70
2019-05-22T00:27:29.499Z,1.77
2019-05-22T00:29:02.029Z,1.73
2019-05-22T00:30:34.491Z,2.00
2019-05-22T00:32:06.900Z,2.43
2019-05-22T00:33:39.378Z,1.77
2019-05-22T00:35:11.740Z,2.00
2019-05-22T00:36:44.136Z,2.23
2019-05-22T00:38:16.536Z,1.37
2019-05-22T00:39:48.944Z,1.50
2019-05-22T00:41:21.310Z,2.20
2019-05-22T00:43:03.371Z,1.70
2019-05-22T00:44:27.743Z,2.50
2019-05-22T00:46:00.632Z,2.57
2019-05-22T00:47:33.037Z,1.40
2019-05-22T00:49:05.443Z,1.50
2019-05-22T00:50:37.941Z,1.80
2019-05-22T00:52:10.411Z,1.27
2019-05-22T00:53:42.747Z,4.00
2019-05-22T00:55:15.167Z,1.47
2019-05-22T00:56:47.586Z,1.63
2019-05-22T00:58:19.923Z,1.73
2019-05-22T00:59:52.323Z,1.50
2019-05-22T01:01:24.747Z,2.13
2019-05-22T01:02:57.085Z,1.73
2019-05-22T01:04:29.853Z,1.53
2019-05-22T01:06:02.209Z,2.13
2019-05-22T01:07:34.608Z,1.40
2019-05-22T01:09:07.021Z,1.40
2019-05-22T01:10:39.421Z,2.33
2019-05-22T01:12:11.824Z,4.20
2019-05-22T01:13:44.228Z,1.30
2019-05-22T01:15:16.700Z,3.80
2019-05-22T01:16:49.059Z,1.77
2019-05-22T01:18:21.530Z,1.50
2019-05-22T01:19:54.008Z,1.23
2019-05-22T01:21:26.437Z,1.70
2019-05-22T01:22:58.912Z,1.83
2019-05-22T01:24:31.315Z,3.13
2019-05-22T01:26:03.807Z,2.33
2019-05-22T01:27:36.291Z,2.17
2019-05-22T01:29:08.706Z,2.17
2019-05-22T01:30:41.047Z,2.47
2019-05-22T01:32:13.471Z,1.93
2019-05-22T01:33:45.882Z,2.43
2019-05-22T01:35:18.303Z,2.50
2019-05-22T01:36:50.992Z,2.53
2019-05-22T01:38:23.404Z,3.17
2019-05-22T01:39:55.812Z,2.33
2019-05-22T01:41:28.204Z,3.53
2019-05-22T01:43:00.701Z,2.73
2019-05-22T01:44:33.108Z,3.77
2019-05-22T01:46:05.595Z,2.93
2019-05-22T01:47:38.024Z,2.77
2019-05-22T01:49:10.452Z,2.37
2019-05-22T01:50:42.925Z,3.33
2019-05-22T01:52:15.447Z,3.30
2019-05-22T01:53:47.843Z,2.87
2019-05-22T01:55:20.288Z,4.67
2019-05-22T01:56:52.728Z,3.63
2019-05-22T01:58:25.093Z,4.07
2019-05-22T01:59:57.572Z,3.03
2019-05-22T02:01:29.913Z,3.47
2019-05-22T02:03:02.258Z,3.97
2019-05-22T02:04:34.667Z,4.77
2019-05-22T02:06:07.662Z,4.70
2019-05-22T02:07:40.084Z,6.07
2019-05-22T02:09:12.639Z,5.40
2019-05-22T02:10:45.319Z,5.17
2019-05-22T02:12:17.680Z,5.10
2019-05-22T02:13:50.105Z,5.20
2019-05-22T02:15:22.503Z,3.97
2019-05-22T02:16:57.231Z,5.87
2019-05-22T02:18:28.962Z,4.63
2019-05-22T02:20:01.395Z,5.07
2019-05-22T02:21:33.785Z,6.20
2019-05-22T02:23:06.213Z,11.10
2019-05-22T02:24:38.544Z,4.90
2019-05-22T02:26:10.886Z,4.70
2019-05-22T02:27:43.284Z,5.07
2019-05-22T02:29:15.718Z,6.10
2019-05-22T02:30:48.128Z,5.50
2019-05-22T02:32:20.470Z,6.67
2019-05-22T02:33:52.952Z,5.40
2019-05-22T02:35:25.382Z,4.83
2019-05-22T02:36:57.796Z,7.00
2019-05-22T02:38:30.290Z,5.90
2019-05-22T02:40:02.711Z,5.77
2019-05-22T02:41:35.172Z,6.50
2019-05-22T02:43:07.645Z,8.07
2019-05-22T02:44:40.007Z,7.07
2019-05-22T02:46:12.488Z,8.13
2019-05-22T02:47:44.966Z,6.97
2019-05-22T02:49:17.425Z,8.27
2019-05-22T02:50:49.809Z,7.93
2019-05-22T02:52:22.152Z,9.47
2019-05-22T02:53:54.582Z,10.37
2019-05-22T02:55:27.059Z,11.80
2019-05-22T02:56:59.536Z,13.10
2019-05-22T02:58:31.949Z,12.00
2019-05-22T03:00:04.458Z,15.10
2019-05-22T03:01:36.935Z,14.73
2019-05-22T03:03:09.347Z,12.50
2019-05-22T03:04:41.852Z,15.00
2019-05-22T03:06:14.327Z,13.53
2019-05-22T03:07:46.739Z,18.70
2019-05-22T03:09:19.255Z,16.03
2019-05-22T03:10:51.660Z,19.90
2019-05-22T03:12:24.005Z,16.90
2019-05-22T03:13:56.484Z,17.47
2019-05-22T03:15:28.987Z,17.17
2019-05-22T03:17:01.396Z,20.13
2019-05-22T03:18:33.808Z,21.63
2019-05-22T03:20:06.324Z,21.93
2019-05-22T03:21:38.737Z,22.97
2019-05-22T03:23:11.210Z,18.37
2019-05-22T03:24:43.623Z,21.03
2019-05-22T03:26:16.054Z,18.93
2019-05-22T03:27:48.565Z,19.60
2019-05-22T03:29:20.948Z,21.17
2019-05-22T03:30:53.465Z,22.07
2019-05-22T03:32:25.874Z,19.77
2019-05-22T03:33:58.363Z,19.27
2019-05-22T03:35:30.797Z,21.00
2019-05-22T03:37:03.367Z,19.27
2019-05-22T03:38:35.843Z,19.00
2019-05-22T03:40:08.195Z,19.83
2019-05-22T03:41:40.691Z,22.77
2019-05-22T03:43:13.031Z,20.87
2019-05-22T03:44:45.438Z,23.43
2019-05-22T03:46:19.741Z,22.57
2019-05-22T03:47:52.219Z,21.23
2019-05-22T03:49:30.620Z,20.50
2019-05-22T03:50:58.699Z,20.37
2019-05-22T03:52:31.182Z,17.10
2019-05-22T03:54:03.615Z,23.83
2019-05-22T03:55:36.112Z,18.67
2019-05-22T03:57:08.651Z,19.27
2019-05-22T03:58:41.042Z,18.53
2019-05-22T04:00:13.524Z,18.67
2019-05-22T04:01:45.944Z,20.43
2019-05-22T04:03:18.280Z,16.73
2019-05-22T04:04:50.703Z,17.47
2019-05-22T04:06:23.189Z,20.70
2019-05-22T04:07:55.639Z,13.07
2019-05-22T04:09:28.105Z,17.10
2019-05-22T04:11:01.551Z,21.52
2019-05-22T04:12:34.069Z,17.50
2019-05-22T04:14:06.718Z,18.63
2019-05-22T04:15:39.249Z,18.27
2019-05-22T04:17:11.681Z,19.63
2019-05-22T04:18:44.088Z,18.77
2019-05-22T04:20:16.568Z,19.45
2019-05-22T04:21:49.510Z,20.57
2019-05-22T04:23:21.972Z,19.97
2019-05-22T04:24:54.460Z,24.60
2019-05-22T04:26:26.869Z,21.33
2019-05-22T04:27:59.284Z,23.53
2019-05-22T04:29:31.668Z,22.67
2019-05-22T04:31:04.379Z,17.63
2019-05-22T04:32:36.893Z,20.30
2019-05-22T04:34:09.291Z,23.03
2019-05-22T04:35:41.730Z,25.40
2019-05-22T04:37:14.235Z,22.70
2019-05-22T04:38:46.696Z,22.33
2019-05-22T04:40:19.040Z,27.87
2019-05-22T04:41:51.527Z,21.83
2019-05-22T04:43:23.948Z,24.13
2019-05-22T04:44:56.291Z,24.93
2019-05-22T04:46:28.628Z,25.40
2019-05-22T04:48:01.148Z,26.83
2019-05-22T04:49:33.583Z,26.80
2019-05-22T04:51:06.027Z,29.77
2019-05-22T04:52:38.451Z,26.57
2019-05-22T04:54:13.846Z,31.43
2019-05-22T04:55:46.327Z,31.07
2019-05-22T04:57:18.841Z,27.17
2019-05-22T04:58:51.251Z,30.37
2019-05-22T05:00:23.669Z,30.97
2019-05-22T05:01:56.164Z,32.43
2019-05-22T05:03:31.533Z,32.83
2019-05-22T05:05:04.016Z,27.30
2019-05-22T05:06:36.423Z,24.17
2019-05-22T05:08:08.859Z,26.87
2019-05-22T05:09:41.355Z,32.20
2019-05-22T05:11:13.798Z,28.57
2019-05-22T05:12:46.177Z,32.67
2019-05-22T05:14:18.609Z,26.80
2019-05-22T05:15:51.083Z,28.83
2019-05-22T05:17:23.419Z,25.17
2019-05-22T05:18:55.852Z,27.97
2019-05-22T05:20:28.349Z,24.30
2019-05-22T05:22:00.715Z,23.77
2019-05-22T05:23:33.146Z,25.97
2019-05-22T05:25:05.584Z,26.93
2019-05-22T05:26:37.996Z,22.53
2019-05-22T05:28:10.406Z,23.47
2019-05-22T05:29:42.765Z,26.30
2019-05-22T05:31:15.190Z,25.43
2019-05-22T05:32:47.667Z,25.03
2019-05-22T05:34:20.105Z,23.07
2019-05-22T05:35:52.447Z,24.33
2019-05-22T05:37:24.852Z,28.00
2019-05-22T05:38:57.683Z,22.77
2019-05-22T05:40:30.069Z,24.70
2019-05-22T05:42:02.483Z,22.50
2019-05-22T05:43:34.897Z,23.43
2019-05-22T05:45:07.328Z,20.87
2019-05-22T05:46:39.753Z,23.33
2019-05-22T05:48:12.231Z,25.93
2019-05-22T05:49:44.646Z,25.77
2019-05-22T05:51:17.067Z,28.97
2019-05-22T05:52:49.549Z,26.90
2019-05-22T05:54:21.988Z,26.63
2019-05-22T05:55:54.468Z,24.80
2019-05-22T05:57:26.885Z,28.90
2019-05-22T05:58:59.317Z,30.33
2019-05-22T06:00:31.809Z,31.23
2019-05-22T06:02:04.480Z,34.43
2019-05-22T06:03:36.819Z,38.33
2019-05-22T06:05:09.264Z,34.13
2019-05-22T06:06:41.669Z,38.60
2019-05-22T06:08:14.155Z,44.30
2019-05-22T06:09:46.656Z,41.37
2019-05-22T06:11:19.139Z,36.17
2019-05-22T06:12:51.559Z,37.17
2019-05-22T06:14:24.159Z,39.97
2019-05-22T06:15:56.772Z,43.70
2019-05-22T06:17:29.115Z,39.77
2019-05-22T06:19:01.722Z,40.37
2019-05-22T06:20:34.216Z,46.10
2019-05-22T06:22:06.554Z,43.47
2019-05-22T06:23:39.053Z,39.87
2019-05-22T06:25:11.473Z,40.27
2019-05-22T06:26:43.957Z,39.80
2019-05-22T06:28:16.288Z,39.53
2019-05-22T06:29:48.721Z,42.37
2019-05-22T06:31:21.156Z,40.60
2019-05-22T06:32:53.632Z,39.27
2019-05-22T06:34:25.971Z,38.70
2019-05-22T06:35:58.327Z,40.77
2019-05-22T06:37:30.735Z,40.53
2019-05-22T06:39:03.147Z,42.23
2019-05-22T06:40:35.564Z,42.63
2019-05-22T06:42:08.003Z,39.67
2019-05-22T06:43:40.480Z,44.13
2019-05-22T06:45:12.843Z,43.13
2019-05-22T06:46:45.333Z,40.83
2019-05-22T06:48:17.804Z,41.80
2019-05-22T06:49:50.139Z,43.13
2019-05-22T06:51:22.684Z,43.93
2019-05-22T06:53:09.083Z,40.00
2019-05-22T06:54:29.138Z,45.60
2019-05-22T06:56:01.619Z,35.53
2019-05-22T06:57:34.131Z,40.33
2019-05-22T06:59:06.620Z,45.85
2019-05-22T07:00:39.109Z,39.87
2019-05-22T07:02:11.619Z,37.73
2019-05-22T07:03:44.093Z,36.63
2019-05-22T07:05:16.592Z,39.77
2019-05-22T07:06:49.079Z,40.10
2019-05-22T07:08:21.460Z,38.27
2019-05-22T07:09:54.027Z,38.23
2019-05-22T07:11:26.511Z,42.33
2019-05-22T07:12:58.868Z,41.50
2019-05-22T07:14:31.356Z,37.13
2019-05-22T07:16:03.883Z,39.63
2019-05-22T07:17:36.239Z,39.70
2019-05-22T07:19:08.689Z,33.57
2019-05-22T07:20:41.108Z,40.50
2019-05-22T07:22:13.600Z,34.40
2019-05-22T07:23:45.972Z,34.47
2019-05-22T07:25:18.461Z,35.33
2019-05-22T07:26:50.796Z,35.57
2019-05-22T07:28:23.216Z,34.20
2019-05-22T07:29:55.636Z,32.30
2019-05-22T07:31:28.049Z,36.10
2019-05-22T07:33:00.559Z,39.07
2019-05-22T07:34:32.888Z,33.40
2019-05-22T07:36:10.101Z,34.70
2019-05-22T07:37:39.326Z,37.80
2019-05-22T07:39:11.763Z,33.70
2019-05-22T07:40:44.204Z,34.23
2019-05-22T07:42:16.684Z,36.03
2019-05-22T07:43:49.204Z,36.63
2019-05-22T07:45:21.688Z,32.03
2019-05-22T07:46:54.299Z,31.00
2019-05-22T07:48:26.803Z,30.90
2019-05-22T07:49:59.135Z,33.70
2019-05-22T07:51:31.548Z,32.33
2019-05-22T07:53:03.963Z,26.47
2019-05-22T07:54:36.401Z,28.60
2019-05-22T07:56:08.884Z,29.03
2019-05-22T07:57:41.300Z,32.40
2019-05-22T07:59:13.679Z,30.33
2019-05-22T08:00:46.094Z,27.93
2019-05-22T08:02:18.581Z,29.90
2019-05-22T08:03:50.976Z,27.33
2019-05-22T08:05:23.420Z,27.77
2019-05-22T08:06:55.754Z,26.97
2019-05-22T08:08:28.089Z,24.37
2019-05-22T08:10:00.587Z,29.43
2019-05-22T08:11:32.998Z,27.23
2019-05-22T08:13:05.340Z,26.60
2019-05-22T08:14:37.852Z,28.03
2019-05-22T08:16:10.254Z,24.60
2019-05-22T08:17:44.225Z,27.17
2019-05-22T08:19:16.749Z,26.03
2019-05-22T08:20:49.219Z,28.37
2019-05-22T08:22:21.627Z,28.03
2019-05-22T08:23:54.057Z,28.93
2019-05-22T08:25:26.395Z,26.50
2019-05-22T08:26:58.761Z,25.20
2019-05-22T08:28:31.289Z,23.87
2019-05-22T08:30:03.744Z,22.17
2019-05-22T08:31:36.244Z,25.23
2019-05-22T08:33:08.734Z,24.73
2019-05-22T08:34:41.159Z,23.07
2019-05-22T08:36:13.570Z,20.50
2019-05-22T08:37:45.905Z,25.77
2019-05-22T08:39:18.341Z,26.60
2019-05-22T08:40:50.752Z,24.70
2019-05-22T08:42:23.235Z,34.10
2019-05-22T08:44:14.612Z,24.60
2019-05-22T08:45:29.697Z,26.43
2019-05-22T08:47:02.192Z,30.27
2019-05-22T08:48:34.676Z,28.57
2019-05-22T08:50:07.125Z,31.03
2019-05-22T08:51:39.610Z,25.27
2019-05-22T08:53:12.012Z,30.17
2019-05-22T08:54:44.375Z,28.03
2019-05-22T08:56:16.868Z,29.80
2019-05-22T08:57:49.471Z,27.53
2019-05-22T08:59:21.911Z,29.97
2019-05-22T09:00:54.397Z,30.97
2019-05-22T09:02:26.879Z,28.43
2019-05-22T09:03:59.245Z,30.93
2019-05-22T09:05:31.823Z,27.00
2019-05-22T09:07:04.401Z,34.87
2019-05-22T09:08:36.835Z,25.47
2019-05-22T09:10:09.358Z,27.73
2019-05-22T09:11:41.832Z,29.03
2019-05-22T09:13:15.335Z,25.77
2019-05-22T09:14:47.854Z,28.57
2019-05-22T09:16:20.367Z,25.67
2019-05-22T09:17:52.759Z,29.87
2019-05-22T09:19:25.174Z,26.60
2019-05-22T09:20:57.601Z,26.20
2019-05-22T09:22:40.079Z,22.83
2019-05-22T09:24:04.122Z,22.17
2019-05-22T09:25:36.613Z,22.67
2019-05-22T09:27:09.029Z,21.77
2019-05-22T09:28:41.527Z,24.13
2019-05-22T09:30:14.128Z,22.27
2019-05-22T09:31:46.541Z,27.03
2019-05-22T09:33:18.947Z,22.33
2019-05-22T09:34:51.367Z,22.40
2019-05-22T09:36:23.713Z,21.70
2019-05-22T09:37:56.048Z,22.37
2019-05-22T09:39:28.533Z,22.73
2019-05-22T09:41:00.968Z,21.87
2019-05-22T09:42:33.695Z,22.17
2019-05-22T09:44:06.179Z,21.77
2019-05-22T09:45:38.522Z,19.63
2019-05-22T09:47:11.027Z,23.23
2019-05-22T09:48:43.613Z,19.77
2019-05-22T09:50:16.151Z,22.20
2019-05-22T09:51:48.727Z,22.47
2019-05-22T09:53:21.131Z,21.77
2019-05-22T09:54:53.553Z,23.33
2019-05-22T09:56:26.046Z,19.53
2019-05-22T09:57:58.544Z,23.00
2019-05-22T09:59:30.958Z,20.73
2019-05-22T10:01:03.392Z,21.17
2019-05-22T10:02:35.866Z,20.00
2019-05-22T10:04:08.209Z,23.67
2019-05-22T10:05:40.737Z,24.10
2019-05-22T10:07:13.399Z,25.00
2019-05-22T10:08:45.885Z,24.93
2019-05-22T10:10:18.410Z,26.13
2019-05-22T10:11:50.964Z,27.57
2019-05-22T10:13:23.379Z,26.63
2019-05-22T10:14:55.856Z,27.10
2019-05-22T10:16:28.265Z,30.27
2019-05-22T10:18:00.709Z,28.23
2019-05-22T10:19:33.188Z,29.97
2019-05-22T10:21:05.683Z,31.17
2019-05-22T10:22:38.049Z,32.40
2019-05-22T10:24:10.484Z,29.83
2019-05-22T10:25:42.944Z,29.93
2019-05-22T10:27:15.384Z,27.23
2019-05-22T10:28:47.790Z,27.73
2019-05-22T10:30:20.287Z,29.97
2019-05-22T10:31:52.700Z,30.70
2019-05-22T10:33:25.141Z,28.60
2019-05-22T10:34:57.907Z,32.23
2019-05-22T10:36:30.481Z,29.83
2019-05-22T10:38:02.908Z,30.90
2019-05-22T10:39:35.386Z,30.13
2019-05-22T10:41:07.748Z,33.90
2019-05-22T10:42:44.440Z,34.93
2019-05-22T10:44:14.348Z,28.13
2019-05-22T10:45:46.757Z,30.30
2019-05-22T10:47:19.233Z,38.30
2019-05-22T10:48:51.732Z,34.47
2019-05-22T10:50:24.147Z,31.50
2019-05-22T10:51:56.683Z,26.97
2019-05-22T10:53:33.623Z,27.00
2019-05-22T10:55:03.155Z,29.10
2019-05-22T10:56:35.640Z,31.70
2019-05-22T10:58:08.170Z,24.40
2019-05-22T10:59:40.680Z,28.33
2019-05-22T11:01:13.092Z,27.93
2019-05-22T11:02:45.613Z,26.50
2019-05-22T11:04:19.504Z,28.33
2019-05-22T11:06:06.256Z,29.93
2019-05-22T11:07:26.543Z,30.83
2019-05-22T11:08:58.918Z,28.30
2019-05-22T11:10:31.402Z,26.13
2019-05-22T11:12:03.880Z,27.67
2019-05-22T11:13:36.328Z,29.77
2019-05-22T11:15:08.809Z,29.87
2019-05-22T11:16:41.294Z,31.93
2019-05-22T11:18:13.699Z,29.73
2019-05-22T11:19:46.134Z,28.87
2019-05-22T11:21:18.620Z,31.70
2019-05-22T11:22:51.033Z,31.17
2019-05-22T11:24:23.561Z,26.83
2019-05-22T11:25:56.048Z,28.27
2019-05-22T11:27:28.484Z,29.57
2019-05-22T11:29:00.915Z,34.87
2019-05-22T11:30:33.404Z,34.30
2019-05-22T11:32:06.082Z,27.80
2019-05-22T11:33:38.509Z,26.93
2019-05-22T11:35:10.843Z,28.93
2019-05-22T11:36:43.186Z,28.93
2019-05-22T11:38:15.719Z,31.13
2019-05-22T11:39:48.167Z,30.63
2019-05-22T11:41:20.544Z,29.63
2019-05-22T11:42:53.032Z,29.70
2019-05-22T11:44:25.528Z,35.40
2019-05-22T11:45:57.942Z,32.00
2019-05-22T11:47:30.420Z,33.17
2019-05-22T11:49:02.778Z,33.17
2019-05-22T11:50:35.192Z,32.73
2019-05-22T11:52:07.676Z,31.93
2019-05-22T11:53:40.088Z,33.80
2019-05-22T11:55:12.527Z,37.60
2019-05-22T11:56:45.023Z,37.20
2019-05-22T11:58:17.500Z,36.50
2019-05-22T11:59:49.864Z,31.43
2019-05-22T12:01:22.341Z,30.63
2019-05-22T12:02:54.763Z,33.23
2019-05-22T12:04:27.140Z,34.07
2019-05-22T12:05:59.506Z,31.20
2019-05-22T12:07:31.990Z,33.00
2019-05-22T12:09:04.495Z,34.53
2019-05-22T12:10:46.131Z,33.43
2019-05-22T12:12:18.467Z,29.23
2019-05-22T12:13:50.884Z,31.13
2019-05-22T12:15:23.314Z,34.10
2019-05-22T12:16:55.800Z,31.20
2019-05-22T12:18:28.206Z,29.20
2019-05-22T12:20:00.558Z,31.00
2019-05-22T12:21:32.999Z,33.43
2019-05-22T12:23:05.484Z,29.73
2019-05-22T12:24:37.922Z,31.33
2019-05-22T12:26:10.380Z,35.20
2019-05-22T12:27:42.876Z,33.30
2019-05-22T12:29:17.515Z,31.40
2019-05-22T12:30:49.424Z,29.73
2019-05-22T12:32:21.795Z,32.97
2019-05-22T12:33:54.212Z,34.73
2019-05-22T12:35:26.706Z,35.17
2019-05-22T12:36:59.232Z,32.20
2019-05-22T12:38:31.638Z,30.57
2019-05-22T12:40:04.054Z,29.03
2019-05-22T12:41:36.469Z,27.07
2019-05-22T12:43:08.898Z,29.00
2019-05-22T12:44:41.408Z,30.27
2019-05-22T12:46:13.908Z,27.73
2019-05-22T12:47:46.344Z,30.70
2019-05-22T12:49:18.827Z,28.80
2019-05-22T12:50:51.259Z,29.33
2019-05-22T12:52:23.756Z,29.57
2019-05-22T12:53:56.244Z,26.40
2019-05-22T12:55:28.744Z,30.20
2019-05-22T12:57:01.177Z,27.00
2019-05-22T12:58:33.966Z,27.60
2019-05-22T13:00:06.447Z,27.80
2019-05-22T13:01:38.794Z,32.67
2019-05-22T13:03:11.343Z,27.30
2019-05-22T13:04:43.764Z,23.17
2019-05-22T13:06:16.193Z,26.27
2019-05-22T13:07:48.699Z,23.30
2019-05-22T13:09:21.254Z,24.37
2019-05-22T13:10:53.710Z,24.40
2019-05-22T13:12:26.148Z,23.30
2019-05-22T13:13:58.630Z,25.77
2019-05-22T13:15:31.043Z,24.23
2019-05-22T13:17:03.476Z,25.73
2019-05-22T13:18:35.938Z,24.30
2019-05-22T13:20:08.320Z,23.20
2019-05-22T13:21:40.738Z,27.43
2019-05-22T13:23:13.249Z,21.27
2019-05-22T13:24:45.744Z,24.10
2019-05-22T13:26:18.223Z,24.63
2019-05-22T13:27:50.756Z,23.77
2019-05-22T13:29:23.278Z,22.87
2019-05-22T13:30:55.774Z,25.20
2019-05-22T13:32:28.274Z,25.73
2019-05-22T13:34:00.687Z,24.00
2019-05-22T13:35:33.046Z,23.33
2019-05-22T13:37:05.523Z,22.17
2019-05-22T13:38:37.979Z,24.82
2019-05-22T13:40:26.545Z,29.15
2019-05-22T13:41:44.574Z,25.93
2019-05-22T13:43:17.008Z,24.70
2019-05-22T13:44:49.511Z,23.73
2019-05-22T13:46:22.012Z,24.40
2019-05-22T13:47:54.440Z,25.43
2019-05-22T13:49:26.935Z,28.25
2019-05-22T13:50:59.450Z,24.90
2019-05-22T13:52:31.878Z,25.40
2019-05-22T13:54:04.424Z,26.03
2019-05-22T13:55:36.907Z,27.40
2019-05-22T13:57:09.441Z,27.75
2019-05-22T13:58:41.883Z,25.90
2019-05-22T14:00:14.486Z,28.05
2019-05-22T14:01:46.906Z,28.62
2019-05-22T14:03:19.427Z,29.00
2019-05-22T14:04:51.900Z,27.60
2019-05-22T14:06:24.251Z,24.95
2019-05-22T14:07:56.776Z,25.97
2019-05-22T14:09:29.188Z,26.67
2019-05-22T14:11:01.696Z,28.10
2019-05-22T14:12:34.088Z,25.30
2019-05-22T14:14:06.598Z,28.32
2019-05-22T14:15:50.483Z,26.60
2019-05-22T14:17:13.151Z,27.73
2019-05-22T14:18:45.656Z,28.53
2019-05-22T14:20:18.063Z,26.87
2019-05-22T14:21:51.989Z,25.25
2019-05-22T14:23:24.751Z,29.02
2019-05-22T14:24:57.635Z,27.90
2019-05-22T14:26:30.167Z,28.07
2019-05-22T14:28:02.621Z,31.25
2019-05-22T14:29:35.377Z,31.87
2019-05-22T14:31:07.782Z,32.40
2019-05-22T14:32:40.196Z,34.13
2019-05-22T14:34:12.710Z,29.67
2019-05-22T14:35:48.904Z,29.67
2019-05-22T14:37:19.241Z,29.93
2019-05-22T14:38:51.748Z,28.23
2019-05-22T14:40:24.192Z,30.03
2019-05-22T14:41:56.644Z,31.55
2019-05-22T14:43:29.187Z,30.13
2019-05-22T14:45:01.576Z,29.20
2019-05-22T14:46:34.062Z,29.60
2019-05-22T14:48:06.544Z,26.13
2019-05-22T14:49:38.976Z,30.40
2019-05-22T14:51:11.318Z,28.57
2019-05-22T14:52:43.764Z,29.00
2019-05-22T14:54:16.197Z,30.87
2019-05-22T14:55:48.699Z,31.27
2019-05-22T14:57:21.194Z,31.50
2019-05-22T14:58:53.705Z,28.07
2019-05-22T15:00:26.207Z,28.92
2019-05-22T15:01:58.709Z,26.45
2019-05-22T15:03:31.120Z,28.55
2019-05-22T15:05:03.585Z,28.40
2019-05-22T15:06:36.066Z,28.47
2019-05-22T15:08:08.491Z,26.80
2019-05-22T15:09:41.008Z,28.42
2019-05-22T15:11:13.463Z,27.48
2019-05-22T15:12:45.868Z,26.53
2019-05-22T15:14:18.359Z,28.70
2019-05-22T15:15:50.861Z,25.25
2019-05-22T15:17:32.170Z,26.40
2019-05-22T15:18:57.676Z,28.32
2019-05-22T15:20:30.592Z,29.80
2019-05-22T15:22:03.051Z,31.07
2019-05-22T15:23:35.538Z,24.07
2019-05-22T15:25:08.017Z,25.92
2019-05-22T15:26:40.444Z,27.67
2019-05-22T15:28:13.056Z,26.55
2019-05-22T15:29:45.848Z,25.10
2019-05-22T15:31:18.279Z,26.48
2019-05-22T15:32:50.668Z,25.52
2019-05-22T15:34:23.112Z,28.05
2019-05-22T15:35:55.748Z,26.48
2019-05-22T15:37:28.248Z,25.60
2019-05-22T15:39:00.660Z,27.97
2019-05-22T15:40:33.076Z,28.20
2019-05-22T15:42:06.563Z,24.43
2019-05-22T15:43:40.901Z,35.13
2019-05-22T15:45:13.785Z,28.50
2019-05-22T15:46:46.785Z,36.87
2019-05-22T15:48:19.583Z,26.77
2019-05-22T15:49:51.999Z,32.10
2019-05-22T15:51:24.515Z,26.50
2019-05-22T15:52:58.529Z,28.57
2019-05-22T15:54:31.820Z,26.97
2019-05-22T15:56:04.802Z,25.97
2019-05-22T15:57:37.375Z,26.33
2019-05-22T15:59:09.879Z,20.07
2019-05-22T16:00:42.309Z,23.07
2019-05-22T16:02:15.251Z,21.67
2019-05-22T16:03:48.099Z,23.87
2019-05-22T16:05:20.998Z,23.00
2019-05-22T16:06:55.828Z,25.60
2019-05-22T16:08:29.013Z,23.27
2019-05-22T16:10:01.518Z,22.47
2019-05-22T16:11:34.667Z,19.77
2019-05-22T16:13:07.240Z,22.20
2019-05-22T16:14:39.739Z,22.67
2019-05-22T16:16:12.499Z,24.30
2019-05-22T16:17:45.070Z,22.43
2019-05-22T16:19:17.434Z,20.15
2019-05-22T16:20:50.024Z,21.20
2019-05-22T16:22:22.504Z,24.47
2019-05-22T16:23:55.593Z,22.77
2019-05-22T16:25:28.112Z,27.37
2019-05-22T16:27:00.685Z,28.27
2019-05-22T16:28:51.071Z,75.87
2019-05-22T16:30:41.510Z,71.17
2019-05-22T16:32:32.096Z,40.12
2019-05-22T16:34:04.575Z,28.93
2019-05-22T16:35:36.996Z,32.17
2019-05-22T16:37:09.479Z,21.52
2019-05-22T16:39:00.298Z,23.77
2019-05-22T16:40:51.066Z,20.53
2019-05-22T16:42:23.475Z,22.57
2019-05-22T16:43:57.229Z,19.07
2019-05-22T16:45:29.669Z,18.03
2019-05-22T16:47:02.208Z,20.60
2019-05-22T16:48:34.731Z,17.65
2019-05-22T16:50:07.169Z,18.43
2019-05-22T16:51:39.647Z,18.10
2019-05-22T16:53:14.172Z,17.03
2019-05-22T16:54:46.620Z,16.87
2019-05-22T16:56:19.105Z,15.90
2019-05-22T16:57:51.611Z,15.77
2019-05-22T16:59:24.022Z,16.97
2019-05-22T17:00:57.347Z,14.43
2019-05-22T17:02:29.980Z,14.10
2019-05-22T17:04:02.455Z,15.10
2019-05-22T17:05:35.043Z,16.27
2019-05-22T17:07:07.533Z,15.30
2019-05-22T17:08:39.971Z,15.73
2019-05-22T17:10:12.444Z,13.57
2019-05-22T17:11:44.852Z,12.43
2019-05-22T17:13:17.212Z,14.17
2019-05-22T17:14:49.568Z,11.63
2019-05-22T17:16:21.971Z,11.50
2019-05-22T17:17:54.401Z,11.93
2019-05-22T17:19:27.950Z,10.03
2019-05-22T17:21:00.578Z,10.37
2019-05-22T17:22:32.968Z,10.13
2019-05-22T17:24:05.439Z,11.70
2019-05-22T17:25:37.839Z,13.50
2019-05-22T17:27:10.348Z,12.80
2019-05-22T17:28:42.794Z,11.13
2019-05-22T17:30:20.400Z,9.90
2019-05-22T17:31:50.329Z,12.03
2019-05-22T17:33:22.770Z,12.37
2019-05-22T17:36:46.651Z,13.43
2019-05-22T17:38:19.206Z,13.47
2019-05-22T17:39:51.719Z,12.97
2019-05-22T17:41:24.189Z,13.03
2019-05-22T17:42:56.826Z,13.37
2019-05-22T17:44:29.925Z,11.10
2019-05-22T17:46:02.363Z,13.47
2019-05-22T17:47:34.861Z,10.70
2019-05-22T17:49:07.325Z,13.20
2019-05-22T17:50:39.727Z,13.50
2019-05-22T17:52:12.671Z,13.83
2019-05-22T17:53:45.648Z,13.50
2019-05-22T17:55:18.060Z,13.25
2019-05-22T17:56:56.604Z,12.90
2019-05-22T17:58:31.847Z,12.40
2019-05-22T18:00:04.231Z,15.47
2019-05-22T18:01:36.953Z,11.50
2019-05-22T18:03:09.897Z,16.93
2019-05-22T18:04:42.330Z,11.67
2019-05-22T18:06:14.824Z,14.90
2019-05-22T18:07:47.235Z,11.40
2019-05-22T18:09:19.884Z,11.57
2019-05-22T18:10:52.343Z,11.40
2019-05-22T18:12:24.762Z,10.20
2019-05-22T18:13:57.519Z,9.63
2019-05-22T18:15:30.160Z,12.90
2019-05-22T18:17:02.883Z,10.27
2019-05-22T18:18:35.343Z,11.03
2019-05-22T18:20:08.200Z,10.30
2019-05-22T18:21:40.972Z,12.43
2019-05-22T18:23:13.518Z,10.97
2019-05-22T18:24:46.132Z,9.63
2019-05-22T18:26:19.005Z,8.83
2019-05-22T18:27:51.489Z,11.33
2019-05-22T18:29:24.048Z,10.17
2019-05-22T18:30:56.613Z,9.97
2019-05-22T18:32:31.573Z,9.67
2019-05-22T18:34:03.448Z,9.23
2019-05-22T18:35:37.943Z,10.20
2019-05-22T18:37:10.823Z,9.43
2019-05-22T18:38:43.776Z,10.30
2019-05-22T18:40:16.640Z,9.93
2019-05-22T18:41:49.093Z,10.80
2019-05-22T18:43:23.123Z,11.60
2019-05-22T18:44:56.133Z,9.63
2019-05-22T18:46:28.829Z,11.13
2019-05-22T18:48:01.684Z,11.33
2019-05-22T18:49:34.173Z,10.27
2019-05-22T18:51:06.757Z,14.93
2019-05-22T18:52:41.418Z,10.53
2019-05-22T18:54:13.657Z,10.27
2019-05-22T18:55:45.995Z,9.80
2019-05-22T18:57:18.511Z,9.70
2019-05-22T18:58:51.434Z,10.70
2019-05-22T19:00:24.623Z,10.87
2019-05-22T19:01:57.208Z,11.40
2019-05-22T19:03:29.780Z,10.27
2019-05-22T19:05:02.372Z,14.33
2019-05-22T19:06:34.912Z,11.83
2019-05-22T19:08:07.866Z,9.83
2019-05-22T19:09:40.333Z,11.80
2019-05-22T19:11:13.212Z,8.47
2019-05-22T19:12:45.744Z,10.27
2019-05-22T19:14:18.139Z,10.30
2019-05-22T19:15:50.784Z,10.87
2019-05-22T19:17:23.471Z,9.97
2019-05-22T19:18:55.886Z,10.63
2019-05-22T19:20:28.571Z,10.27
2019-05-22T19:22:00.931Z,10.43
2019-05-22T19:23:33.391Z,11.73
2019-05-22T19:25:06.032Z,9.63
2019-05-22T19:26:38.513Z,12.67
2019-05-22T19:28:10.943Z,9.97
2019-05-22T19:29:43.641Z,12.50
2019-05-22T19:31:16.338Z,10.83
2019-05-22T19:32:49.174Z,11.27
2019-05-22T19:34:21.623Z,11.87
2019-05-22T19:35:54.312Z,11.23
2019-05-22T19:37:27.047Z,10.17
2019-05-22T19:38:59.570Z,10.07
2019-05-22T19:40:32.003Z,13.50
2019-05-22T19:42:06.548Z,11.30
2019-05-22T19:43:39.012Z,10.73
2019-05-22T19:45:11.488Z,12.87
2019-05-22T19:46:45.269Z,11.67
2019-05-22T19:48:18.097Z,11.27
2019-05-22T19:49:50.847Z,10.90
2019-05-22T19:51:23.355Z,13.07
2019-05-22T19:52:55.956Z,12.00
2019-05-22T19:54:28.445Z,13.83
2019-05-22T19:56:00.811Z,11.83
2019-05-22T19:57:33.381Z,12.37
2019-05-22T19:59:06.416Z,10.87
2019-05-22T20:00:38.832Z,14.27
2019-05-22T20:02:11.618Z,9.73